createdAt,value
2022-10-22T00:00:05.592Z,99.90
2022-10-22T00:02:32.597Z,99.90
2022-10-22T00:04:59.616Z,99.90
2022-10-22T00:07:26.502Z,99.90
2022-10-22T00:09:53.514Z,99.90
2022-10-22T00:12:20.939Z,99.90
2022-10-22T00:14:48.225Z,99.90
2022-10-22T00:17:15.242Z,99.90
2022-10-22T00:19:42.151Z,99.90
2022-10-22T00:22:10.201Z,99.90
2022-10-22T00:24:38.882Z,99.90
2022-10-22T00:27:07.247Z,99.90
2022-10-22T00:29:37.283Z,99.90
2022-10-22T00:32:05.295Z,99.90
2022-10-22T00:34:32.605Z,99.90
2022-10-22T00:36:59.542Z,99.90
2022-10-22T00:39:27.588Z,99.90
2022-10-22T00:41:56.585Z,99.90
2022-10-22T00:45:00.789Z,99.90
2022-10-22T00:47:37.261Z,99.90
2022-10-22T00:50:09.367Z,99.90
2022-10-22T00:52:36.890Z,99.90
2022-10-22T00:55:05.373Z,99.90
2022-10-22T00:57:33.153Z,99.90
2022-10-22T01:00:00.248Z,99.90
2022-10-22T01:02:27.744Z,99.90
2022-10-22T01:04:54.586Z,99.90
2022-10-22T01:07:28.415Z,99.90
2022-10-22T01:10:14.154Z,99.90
2022-10-22T01:13:10.238Z,99.90
2022-10-22T01:16:07.392Z,99.90
2022-10-22T01:18:54.751Z,99.90
2022-10-22T01:21:30.525Z,99.90
2022-10-22T01:24:23.996Z,99.90
2022-10-22T01:27:20.107Z,99.90
2022-10-22T01:29:52.551Z,99.90
2022-10-22T01:32:31.612Z,99.90
2022-10-22T01:35:07.732Z,99.90
2022-10-22T01:37:40.665Z,99.90
2022-10-22T01:40:09.125Z,99.90
2022-10-22T01:42:36.066Z,99.90
2022-10-22T01:45:03.189Z,99.90
2022-10-22T01:47:51.472Z,99.90
2022-10-22T01:50:35.572Z,99.90
2022-10-22T01:53:24.104Z,99.90
2022-10-22T01:55:56.890Z,99.90
2022-10-22T01:58:26.782Z,99.90
2022-10-22T02:01:15.429Z,99.90
2022-10-22T02:03:51.066Z,99.90
2022-10-22T02:06:22.427Z,99.90
2022-10-22T02:08:51.092Z,99.90
2022-10-22T02:11:18.173Z,99.90
2022-10-22T02:13:48.758Z,99.90
2022-10-22T02:16:46.212Z,99.90
2022-10-22T02:19:51.967Z,99.90
2022-10-22T02:22:19.707Z,99.90
2022-10-22T02:24:49.065Z,99.90
2022-10-22T02:27:25.947Z,99.90
2022-10-22T02:30:04.514Z,99.90
2022-10-22T02:33:00.266Z,99.90
2022-10-22T02:35:28.636Z,99.90
2022-10-22T02:37:57.644Z,99.90
2022-10-22T02:40:25.621Z,99.90
2022-10-22T02:42:53.575Z,99.90
2022-10-22T02:45:21.147Z,99.90
2022-10-22T02:47:48.149Z,99.90
2022-10-22T02:50:15.175Z,99.90
2022-10-22T02:52:42.502Z,99.90
2022-10-22T02:55:09.768Z,99.90
2022-10-22T02:57:36.701Z,99.90
2022-10-22T03:00:06.153Z,99.90
2022-10-22T03:02:33.039Z,99.90
2022-10-22T03:05:00.021Z,99.90
2022-10-22T03:07:27.125Z,99.90
2022-10-22T03:09:54.033Z,99.90
2022-10-22T03:12:21.208Z,99.90
2022-10-22T03:14:48.226Z,99.90
2022-10-22T03:17:15.302Z,99.90
2022-10-22T03:19:42.277Z,99.90
2022-10-22T03:22:19.554Z,99.90
2022-10-22T03:24:50.697Z,99.90
2022-10-22T03:27:20.183Z,99.90
2022-10-22T03:29:48.226Z,99.90
2022-10-22T03:32:15.155Z,99.90
2022-10-22T03:34:42.083Z,99.90
2022-10-22T03:37:09.040Z,99.90
2022-10-22T03:39:37.173Z,99.90
2022-10-22T03:42:06.682Z,99.90
2022-10-22T03:44:35.459Z,99.90
2022-10-22T03:47:02.912Z,99.90
2022-10-22T03:49:29.969Z,99.90
2022-10-22T03:51:56.923Z,99.90
2022-10-22T03:54:23.960Z,99.90
2022-10-22T03:56:50.941Z,99.90
2022-10-22T03:59:17.901Z,99.90
2022-10-22T04:01:44.855Z,99.90
2022-10-22T04:04:11.691Z,99.90
2022-10-22T04:06:38.577Z,99.90
2022-10-22T04:09:05.621Z,99.90
2022-10-22T04:11:32.743Z,99.90
2022-10-22T04:13:59.678Z,99.90
2022-10-22T04:16:31.031Z,99.90
2022-10-22T04:18:58.542Z,99.90
2022-10-22T04:21:25.891Z,99.90
2022-10-22T04:23:53.800Z,99.90
2022-10-22T04:26:21.311Z,99.80
2022-10-22T04:28:51.665Z,99.50
2022-10-22T04:31:21.801Z,99.80
2022-10-22T04:33:58.024Z,99.90
2022-10-22T04:36:26.048Z,99.90
2022-10-22T04:38:55.691Z,99.90
2022-10-22T04:41:31.946Z,99.90
2022-10-22T04:43:59.377Z,99.90
2022-10-22T04:46:29.031Z,99.90
2022-10-22T04:48:56.047Z,99.90
2022-10-22T04:51:25.097Z,99.90
2022-10-22T04:53:52.901Z,99.90
2022-10-22T04:56:28.768Z,99.90
2022-10-22T04:58:58.812Z,99.90
2022-10-22T05:01:31.986Z,99.90
2022-10-22T05:04:00.751Z,99.90
2022-10-22T05:06:30.226Z,99.90
2022-10-22T05:09:00.188Z,99.90
2022-10-22T05:11:35.745Z,99.90
2022-10-22T05:14:05.054Z,99.90
2022-10-22T05:16:33.615Z,99.90
2022-10-22T05:19:02.073Z,99.90
2022-10-22T05:21:29.148Z,99.90
2022-10-22T05:23:57.374Z,99.90
2022-10-22T05:26:25.406Z,99.90
2022-10-22T05:28:53.018Z,99.90
2022-10-22T05:31:20.697Z,99.90
2022-10-22T05:33:48.068Z,99.90
2022-10-22T05:36:20.506Z,99.90
2022-10-22T05:38:48.134Z,99.90
2022-10-22T05:41:21.283Z,99.90
2022-10-22T05:43:48.380Z,99.90
2022-10-22T05:46:22.729Z,99.90
2022-10-22T05:48:57.880Z,99.90
2022-10-22T05:51:26.391Z,99.90
2022-10-22T05:53:58.792Z,99.90
2022-10-22T05:56:27.043Z,99.80
2022-10-22T05:58:54.380Z,99.90
2022-10-22T06:01:25.296Z,99.90
2022-10-22T06:03:57.424Z,99.90
2022-10-22T06:06:53.077Z,99.90
2022-10-22T06:09:20.040Z,99.80
2022-10-22T06:11:48.115Z,99.80
2022-10-22T06:14:16.167Z,99.80
2022-10-22T06:16:43.426Z,99.90
2022-10-22T06:19:12.713Z,99.80
2022-10-22T06:21:39.989Z,99.90
2022-10-22T06:24:07.533Z,99.90
2022-10-22T06:26:34.510Z,99.90
2022-10-22T06:29:01.711Z,99.90
2022-10-22T06:31:29.544Z,99.90
2022-10-22T06:33:57.157Z,99.90
2022-10-22T06:36:25.246Z,99.80
2022-10-22T06:38:54.340Z,99.80
2022-10-22T06:41:24.283Z,99.80
2022-10-22T06:43:54.334Z,99.70
2022-10-22T06:46:21.971Z,99.60
2022-10-22T06:48:55.769Z,99.90
2022-10-22T06:51:23.065Z,99.80
2022-10-22T06:53:50.133Z,99.80
2022-10-22T06:56:19.952Z,99.90
2022-10-22T06:58:51.420Z,99.90
2022-10-22T07:01:20.591Z,99.90
2022-10-22T07:03:49.497Z,99.90
2022-10-22T07:06:16.452Z,99.90
2022-10-22T07:08:44.607Z,99.80
2022-10-22T07:11:13.197Z,99.90
2022-10-22T07:13:40.526Z,99.90
2022-10-22T07:16:09.143Z,99.90
2022-10-22T07:18:37.649Z,99.90
2022-10-22T07:21:05.321Z,99.90
2022-10-22T07:23:32.672Z,99.90
2022-10-22T07:26:02.497Z,99.90
2022-10-22T07:28:30.190Z,99.90
2022-10-22T07:30:57.109Z,99.90
2022-10-22T07:33:24.037Z,99.90
2022-10-22T07:35:50.966Z,99.90
2022-10-22T07:38:17.857Z,99.90
2022-10-22T07:40:44.834Z,99.90
2022-10-22T07:43:11.777Z,99.90
2022-10-22T07:45:38.763Z,99.90
2022-10-22T07:48:06.113Z,99.90
2022-10-22T07:50:33.266Z,99.90
2022-10-22T07:53:00.217Z,99.90
2022-10-22T07:55:27.272Z,99.90
2022-10-22T07:57:54.193Z,99.90
2022-10-22T08:00:24.488Z,99.90
2022-10-22T08:02:52.515Z,99.90
2022-10-22T08:05:19.534Z,99.90
2022-10-22T08:07:46.742Z,99.90
2022-10-22T08:10:14.000Z,99.90
2022-10-22T08:12:41.667Z,99.90
2022-10-22T08:15:09.830Z,99.90
2022-10-22T08:17:37.272Z,99.90
2022-10-22T08:20:04.811Z,99.90
2022-10-22T08:22:31.787Z,99.90
2022-10-22T08:25:00.540Z,99.90
2022-10-22T08:27:27.597Z,99.90
2022-10-22T08:29:54.527Z,99.90
2022-10-22T08:32:21.484Z,99.90
2022-10-22T08:34:48.426Z,99.90
2022-10-22T08:37:17.129Z,99.90
2022-10-22T08:39:45.097Z,99.90
2022-10-22T08:42:26.542Z,99.90
2022-10-22T08:45:17.967Z,99.90
2022-10-22T08:48:08.826Z,99.90
2022-10-22T08:50:45.513Z,99.90
2022-10-22T08:53:43.487Z,99.90
2022-10-22T08:56:10.653Z,99.90
2022-10-22T08:58:57.379Z,99.90
2022-10-22T09:01:49.520Z,99.90
2022-10-22T09:04:30.667Z,99.90
2022-10-22T09:06:59.369Z,99.90
2022-10-22T09:09:35.936Z,99.90
2022-10-22T09:12:07.545Z,99.90
2022-10-22T09:14:34.575Z,99.90
2022-10-22T09:17:29.622Z,99.90
2022-10-22T09:20:28.714Z,99.90
2022-10-22T09:23:10.883Z,99.90
2022-10-22T09:25:38.574Z,99.90
2022-10-22T09:28:05.543Z,99.90
2022-10-22T09:30:38.170Z,99.90
2022-10-22T09:33:08.307Z,99.90
2022-10-22T09:35:52.223Z,99.90
2022-10-22T09:38:23.112Z,99.90
2022-10-22T09:40:52.839Z,99.90
2022-10-22T09:43:19.939Z,99.90
2022-10-22T09:45:48.307Z,99.90
2022-10-22T09:48:15.232Z,99.90
2022-10-22T09:50:55.009Z,99.90
2022-10-22T09:53:28.719Z,99.90
2022-10-22T09:55:59.059Z,99.90
2022-10-22T09:58:29.098Z,99.90
2022-10-22T10:01:01.046Z,99.90
2022-10-22T10:03:31.726Z,99.90
2022-10-22T10:06:04.766Z,99.90
2022-10-22T10:08:33.618Z,99.90
2022-10-22T10:11:29.278Z,99.90
2022-10-22T10:14:08.519Z,99.90
2022-10-22T10:16:45.295Z,99.90
2022-10-22T10:19:45.471Z,99.90
2022-10-22T10:22:34.094Z,99.90
2022-10-22T10:25:37.501Z,99.90
2022-10-22T10:28:26.976Z,99.90
2022-10-22T10:30:59.909Z,99.90
2022-10-22T10:33:44.924Z,99.90
2022-10-22T10:36:32.183Z,99.90
2022-10-22T10:39:25.610Z,99.90
2022-10-22T10:42:26.462Z,99.90
2022-10-22T10:44:53.325Z,99.90
2022-10-22T10:47:52.457Z,99.90
2022-10-22T10:50:28.692Z,99.90
2022-10-22T10:53:26.626Z,99.90
2022-10-22T10:55:53.560Z,99.90
2022-10-22T10:58:26.264Z,99.90
2022-10-22T11:01:01.481Z,99.90
2022-10-22T11:03:56.606Z,99.90
2022-10-22T11:06:25.700Z,99.90
2022-10-22T11:09:08.947Z,99.90
2022-10-22T11:11:55.024Z,99.90
2022-10-22T11:14:47.581Z,99.90
2022-10-22T11:17:30.702Z,99.90
2022-10-22T11:20:08.006Z,99.90
2022-10-22T11:23:21.744Z,99.90
2022-10-22T11:25:53.490Z,99.90
2022-10-22T11:28:45.929Z,99.90
2022-10-22T11:31:21.308Z,99.90
2022-10-22T11:34:28.453Z,99.90
2022-10-22T11:36:55.560Z,99.90
2022-10-22T11:39:58.039Z,99.90
2022-10-22T11:42:39.988Z,99.90
2022-10-22T11:45:16.200Z,99.90
2022-10-22T11:48:10.283Z,99.90
2022-10-22T11:50:50.902Z,99.90
2022-10-22T11:53:29.926Z,99.90
2022-10-22T11:56:28.381Z,99.90
2022-10-22T11:58:58.232Z,99.90
2022-10-22T12:01:33.017Z,99.90
2022-10-22T12:04:50.359Z,99.90
2022-10-22T12:08:12.173Z,99.90
2022-10-22T12:11:22.417Z,99.90
2022-10-22T12:14:01.146Z,99.90
2022-10-22T12:16:56.532Z,99.90
2022-10-22T12:19:38.117Z,99.90
2022-10-22T12:22:26.476Z,99.90
2022-10-22T12:25:04.686Z,99.90
2022-10-22T12:27:39.926Z,99.90
2022-10-22T12:30:28.740Z,99.90
2022-10-22T12:33:04.511Z,99.90
2022-10-22T12:35:50.235Z,99.90
2022-10-22T12:38:25.373Z,99.90
2022-10-22T12:41:01.328Z,99.90
2022-10-22T12:43:47.614Z,99.90
2022-10-22T12:46:23.270Z,99.90
2022-10-22T12:48:59.071Z,99.90
2022-10-22T12:51:29.809Z,99.90
2022-10-22T12:54:10.111Z,99.90
2022-10-22T12:56:41.459Z,99.90
2022-10-22T12:59:25.047Z,99.90
2022-10-22T13:02:07.865Z,99.90
2022-10-22T13:04:40.594Z,99.90
2022-10-22T13:07:50.567Z,99.90
2022-10-22T13:10:56.229Z,99.90
2022-10-22T13:13:53.497Z,99.90
2022-10-22T13:16:44.460Z,99.90
2022-10-22T13:19:59.866Z,99.90
2022-10-22T13:22:38.516Z,99.90
2022-10-22T13:25:25.675Z,99.90
2022-10-22T13:27:56.879Z,99.90
2022-10-22T13:30:30.839Z,99.80
2022-10-22T13:33:23.528Z,99.70
2022-10-22T13:36:01.425Z,99.60
2022-10-22T13:38:39.241Z,99.60
2022-10-22T13:41:37.539Z,99.60
2022-10-22T13:44:07.281Z,99.50
2022-10-22T13:46:48.160Z,99.50
2022-10-22T13:49:23.639Z,99.40
2022-10-22T13:51:55.504Z,99.40
2022-10-22T13:54:28.751Z,99.40
2022-10-22T13:56:57.089Z,99.30
2022-10-22T13:59:30.660Z,99.40
2022-10-22T14:02:01.703Z,99.20
2022-10-22T14:04:34.283Z,99.10
2022-10-22T14:07:03.970Z,99.00
2022-10-22T14:09:33.659Z,99.00
2022-10-22T14:12:01.636Z,99.00
2022-10-22T14:14:40.213Z,98.90
2022-10-22T14:17:20.265Z,98.80
2022-10-22T14:19:50.180Z,98.80
2022-10-22T14:22:23.475Z,98.90
2022-10-22T14:24:55.271Z,98.80
2022-10-22T14:27:29.334Z,98.80
2022-10-22T14:30:02.988Z,98.80
2022-10-22T14:32:37.402Z,98.80
2022-10-22T14:35:21.096Z,98.80
2022-10-22T14:37:52.236Z,98.80
2022-10-22T14:40:28.500Z,98.80
2022-10-22T14:43:04.716Z,98.70
2022-10-22T14:45:44.919Z,98.70
2022-10-22T14:48:13.059Z,98.50
2022-10-22T14:50:52.469Z,98.50
2022-10-22T14:53:33.003Z,98.40
2022-10-22T14:56:02.600Z,98.50
2022-10-22T14:58:32.687Z,98.60
2022-10-22T15:01:10.722Z,98.50
2022-10-22T15:03:44.838Z,98.40
2022-10-22T15:06:47.201Z,98.40
2022-10-22T15:09:20.432Z,98.50
2022-10-22T15:11:55.226Z,98.60
2022-10-22T15:14:27.030Z,98.50
2022-10-22T15:17:04.119Z,98.60
2022-10-22T15:19:36.291Z,98.50
2022-10-22T15:22:08.098Z,98.50
2022-10-22T15:24:40.219Z,98.60
2022-10-22T15:27:13.210Z,98.40
2022-10-22T15:29:44.913Z,98.40
2022-10-22T15:32:28.858Z,98.30
2022-10-22T15:35:02.322Z,98.30
2022-10-22T15:37:39.998Z,98.30
2022-10-22T15:40:12.031Z,98.30
2022-10-22T15:42:49.603Z,98.60
2022-10-22T15:45:21.727Z,98.70
2022-10-22T15:47:54.000Z,98.90
2022-10-22T15:50:36.419Z,99.00
2022-10-22T15:53:18.965Z,99.00
2022-10-22T15:55:51.711Z,98.80
2022-10-22T15:58:21.628Z,98.50
2022-10-22T16:00:53.653Z,98.20
2022-10-22T16:03:24.793Z,98.00
2022-10-22T16:06:00.692Z,97.80
2022-10-22T16:11:29.790Z,97.40
2022-10-22T16:14:05.175Z,97.30
2022-10-22T16:16:36.066Z,97.30
2022-10-22T16:19:11.924Z,97.30
2022-10-22T16:21:40.305Z,97.10
2022-10-22T16:24:10.733Z,97.10
2022-10-22T16:26:40.559Z,97.10
2022-10-22T16:29:16.224Z,97.10
2022-10-22T16:31:46.205Z,97.00
2022-10-22T16:34:20.948Z,97.00
2022-10-22T16:36:49.530Z,97.00
2022-10-22T16:39:20.799Z,97.00
2022-10-22T16:41:52.660Z,96.90
2022-10-22T16:44:21.185Z,96.90
2022-10-22T16:46:52.788Z,97.00
2022-10-22T16:49:22.148Z,96.90
2022-10-22T16:51:51.247Z,96.90
2022-10-22T16:54:25.063Z,96.80
2022-10-22T16:56:58.777Z,96.90
2022-10-22T16:59:27.398Z,96.90
2022-10-22T17:01:59.576Z,96.90
2022-10-22T17:04:29.611Z,97.00
2022-10-22T17:07:00.574Z,97.10
2022-10-22T17:09:30.348Z,97.00
2022-10-22T17:11:57.656Z,97.00
2022-10-22T17:14:24.699Z,97.00
2022-10-22T17:16:54.324Z,97.00
2022-10-22T17:19:22.668Z,97.00
2022-10-22T17:21:51.118Z,97.00
2022-10-22T17:24:18.489Z,97.00
2022-10-22T17:26:45.447Z,97.00
2022-10-22T17:29:12.965Z,97.00
2022-10-22T17:31:40.688Z,97.00
2022-10-22T17:34:14.658Z,97.00
2022-10-22T17:36:43.276Z,97.00
2022-10-22T17:39:16.622Z,97.00
2022-10-22T17:41:43.686Z,97.00
2022-10-22T17:44:12.323Z,97.10
2022-10-22T17:46:39.814Z,97.10
2022-10-22T17:49:15.487Z,97.00
2022-10-22T17:51:42.638Z,97.00
2022-10-22T17:54:10.185Z,97.10
2022-10-22T17:56:40.242Z,97.10
2022-10-22T17:59:08.615Z,97.20
2022-10-22T18:01:37.862Z,97.30
2022-10-22T18:04:09.158Z,97.40
2022-10-22T18:06:36.248Z,97.40
2022-10-22T18:09:08.063Z,97.60
2022-10-22T18:11:37.339Z,97.50
2022-10-22T18:14:04.939Z,97.70
2022-10-22T18:16:31.960Z,97.30
2022-10-22T18:18:58.920Z,97.20
2022-10-22T18:21:28.428Z,97.00
2022-10-22T18:23:56.984Z,96.80
2022-10-22T18:26:26.790Z,96.80
2022-10-22T18:28:55.550Z,96.80
2022-10-22T18:31:24.834Z,96.70
2022-10-22T18:36:48.559Z,96.60
2022-10-22T18:39:32.909Z,96.60
2022-10-22T18:42:06.481Z,96.50
2022-10-22T18:45:00.182Z,96.50
2022-10-22T18:47:52.844Z,96.50
2022-10-22T18:50:59.134Z,96.50
2022-10-22T18:53:32.436Z,96.40
2022-10-22T18:55:59.928Z,96.40
2022-10-22T18:58:27.547Z,96.40
2022-10-22T19:00:55.203Z,96.40
2022-10-22T19:03:22.710Z,96.30
2022-10-22T19:05:56.339Z,96.50
2022-10-22T19:08:24.618Z,96.50
2022-10-22T19:10:51.908Z,96.50
2022-10-22T19:13:23.427Z,96.50
2022-10-22T19:15:53.626Z,96.40
2022-10-22T19:18:21.261Z,96.40
2022-10-22T19:20:49.836Z,96.50
2022-10-22T19:23:19.989Z,96.40
2022-10-22T19:25:47.815Z,96.40
2022-10-22T19:28:14.972Z,96.50
2022-10-22T19:30:44.699Z,96.50
2022-10-22T19:33:11.590Z,96.50
2022-10-22T19:35:39.077Z,96.60
2022-10-22T19:38:06.207Z,96.50
2022-10-22T19:40:34.766Z,96.50
2022-10-22T19:43:01.853Z,96.50
2022-10-22T19:45:29.017Z,96.50
2022-10-22T19:47:56.172Z,96.50
2022-10-22T19:50:25.860Z,96.40
2022-10-22T19:52:53.235Z,96.40
2022-10-22T19:55:20.399Z,96.40
2022-10-22T19:57:47.422Z,96.30
2022-10-22T20:00:14.954Z,96.30
2022-10-22T20:02:42.427Z,96.30
2022-10-22T20:05:09.713Z,96.20
2022-10-22T20:07:36.907Z,96.20
2022-10-22T20:10:05.210Z,96.20
2022-10-22T20:12:32.720Z,96.10
2022-10-22T20:15:01.644Z,96.20
2022-10-22T20:17:28.735Z,96.10
2022-10-22T20:19:56.998Z,96.00
2022-10-22T20:22:24.158Z,96.10
2022-10-22T20:24:51.507Z,96.10
2022-10-22T20:27:18.927Z,96.10
2022-10-22T20:29:46.021Z,96.00
2022-10-22T20:32:13.307Z,96.10
2022-10-22T20:34:41.661Z,96.10
2022-10-22T20:37:08.764Z,96.10
2022-10-22T20:39:37.868Z,96.20
2022-10-22T20:42:06.266Z,96.20
2022-10-22T20:44:34.919Z,96.20
2022-10-22T20:47:02.346Z,96.30
2022-10-22T20:49:30.143Z,96.30
2022-10-22T20:51:57.176Z,96.30
2022-10-22T20:54:26.399Z,96.40
2022-10-22T20:56:54.348Z,96.30
2022-10-22T20:59:21.499Z,96.30
2022-10-22T21:01:54.305Z,96.30
2022-10-22T21:04:22.229Z,96.20
2022-10-22T21:06:50.599Z,96.30
2022-10-22T21:09:19.243Z,96.60
2022-10-22T21:11:49.248Z,96.20
2022-10-22T21:14:20.050Z,96.20
2022-10-22T21:16:50.008Z,96.30
2022-10-22T21:19:18.728Z,96.30
2022-10-22T21:21:45.796Z,96.30
2022-10-22T21:24:13.095Z,96.30
2022-10-22T21:26:42.215Z,96.40
2022-10-22T21:29:11.162Z,96.40
2022-10-22T21:31:40.321Z,96.40
2022-10-22T21:34:07.502Z,96.40
2022-10-22T21:36:34.994Z,96.40
2022-10-22T21:39:02.857Z,96.30
2022-10-22T21:41:31.159Z,96.40
2022-10-22T21:43:58.657Z,96.40
2022-10-22T21:46:27.585Z,96.40
2022-10-22T21:49:02.064Z,96.40
2022-10-22T21:51:30.953Z,96.40
2022-10-22T21:53:58.357Z,96.40
2022-10-22T21:56:32.806Z,96.40
2022-10-22T21:59:00.361Z,96.30
2022-10-22T22:01:27.822Z,96.30
2022-10-22T22:03:55.415Z,96.30
2022-10-22T22:06:30.734Z,96.30
2022-10-22T22:08:59.642Z,96.30
2022-10-22T22:11:28.558Z,96.30
2022-10-22T22:13:56.916Z,96.30
2022-10-22T22:16:31.830Z,96.30
2022-10-22T22:19:01.822Z,96.20
2022-10-22T22:21:30.789Z,96.20
2022-10-22T22:23:58.376Z,96.20
2022-10-22T22:26:29.672Z,96.20
2022-10-22T22:28:58.527Z,96.20
2022-10-22T22:31:29.021Z,96.10
2022-10-22T22:34:05.702Z,96.10
2022-10-22T22:36:38.912Z,96.10
2022-10-22T22:39:08.065Z,96.10
2022-10-22T22:41:35.130Z,96.10
2022-10-22T22:44:02.183Z,96.10
2022-10-22T22:46:29.303Z,96.10
2022-10-22T22:48:56.221Z,96.10
2022-10-22T22:51:23.442Z,96.10
2022-10-22T22:53:51.075Z,96.10
2022-10-22T22:56:21.321Z,96.10
2022-10-22T22:58:48.517Z,96.10
2022-10-22T23:01:21.588Z,96.10
2022-10-22T23:03:54.110Z,96.10
2022-10-22T23:06:21.129Z,96.20
2022-10-22T23:08:52.515Z,96.20
2022-10-22T23:11:20.615Z,96.20
2022-10-22T23:13:48.130Z,96.20
2022-10-22T23:16:19.502Z,96.30
2022-10-22T23:18:47.928Z,96.60
2022-10-22T23:21:25.254Z,96.20
2022-10-22T23:23:55.681Z,96.20
2022-10-22T23:26:32.447Z,96.30
2022-10-22T23:29:12.873Z,96.30
2022-10-22T23:31:39.998Z,96.30
2022-10-22T23:34:07.811Z,96.50
2022-10-22T23:36:36.288Z,96.60
2022-10-22T23:39:05.280Z,96.70
2022-10-22T23:41:32.352Z,96.80
2022-10-22T23:44:00.322Z,96.90
2022-10-22T23:46:27.462Z,97.00
2022-10-22T23:48:54.623Z,97.10
2022-10-22T23:51:22.472Z,97.10
2022-10-22T23:53:55.541Z,97.10
2022-10-22T23:56:22.515Z,97.10
2022-10-22T23:58:53.564Z,97.10
